Midnight Wolf — HO7969 — position and weather

sailwx.info

Track history (hours):
 
Tides and Currents Weather Stations Pressure Air Temp Water Temp Dewpoint Dewpoint Depression Visibility Wind Speed Wind Dir Waves Ship Positions

Midnight Wolf

Last reported at 2015-Jun-30 05:09 UTC. Time now 2015-Jun-30 08:16 UTC.
Position N 18°25' W 064°36'.

Length 51 m; draft 4 m.

Type: Cargo ship. MMSI: 351880000.

Date/timePositionNaut miles runAvg speedWind from/ knotsBaromVisibWave heightAir tempDewpointWater temp
2015-Jun-30 05:09N 18°25' W 064°36'6 9.4
2015-Jun-30 04:32N 18°20' W 064°40'8 7.9
2015-Jun-30 03:33N 18°17' W 064°47'6 1.0
2015-Jun-29 21:33N 18°17' W 064°53'13 9.4
2015-Jun-29 20:08N 18°20' W 064°39'4 7.5
2015-Jun-29 19:33N 18°22' W 064°35'1 0.9
2015-Jun-29 18:30N 18°23' W 064°36'2 0.4
2015-Jun-29 14:33N 18°23' W 064°37'9 7.9
2015-Jun-29 13:27N 18°17' W 064°44'7 7.5
2015-Jun-29 12:33N 18°17' W 064°51'8 0.2
2015-Jun-27 10:33N 18°25' W 064°52'1010.1
2015-Jun-27 09:33N 18°23' W 064°42'6 4.7
2015-Jun-27 08:22N 18°25' W 064°36'8 9.5
2015-Jun-27 07:33N 18°18' W 064°41'8 8.1
2015-Jun-27 06:32N 18°17' W 064°49'10 0.4
2015-Jun-26 02:33N 18°26' W 064°54'1010.0
2015-Jun-26 01:32N 18°23' W 064°43'7 1.1
2015-Jun-25 19:18N 18°25' W 064°36'3 4.4
2015-Jun-25 18:33N 18°22' W 064°35'14 6.3
2015-Jun-25 16:24N 18°17' W 064°49'4 0.1
2015-Jun-24 01:04N 18°16' W 064°44'6 9.7
2015-Jun-24 00:28N 18°20' W 064°39'6 4.4
2015-Jun-23 23:09N 18°25' W 064°36'6 9.5
2015-Jun-23 22:32N 18°20' W 064°39'10 8.4
2015-Jun-23 21:21N 18°17' W 064°50'4 0.1
2015-Jun-22 18:04N 18°17' W 064°53'8 9.8
2015-Jun-22 17:18N 18°17' W 064°45'8 9.2
2015-Jun-22 16:27N 18°21' W 064°39'4 0.4
2015-Jun-22 06:08N 18°25' W 064°36'6 9.2
2015-Jun-22 05:30N 18°20' W 064°40'8 8.0
2015-Jun-22 04:31N 18°17' W 064°47'6 0.3
2015-Jun-21 11:11N 18°17' W 064°53'7 9.5
2015-Jun-21 10:26N 18°17' W 064°46'8 8.8
2015-Jun-21 09:31N 18°21' W 064°39'4 0.2
2015-Jun-20 15:15N 18°25' W 064°36'3 4.6
2015-Jun-20 14:33N 18°22' W 064°35'3 0.4
2015-Jun-20 06:33N 18°24' W 064°36'9 8.8
2015-Jun-20 05:33N 18°23' W 064°46'  
Track history (hours):
 
Tides and Currents Weather Stations Pressure Air Temp Water Temp Dewpoint Dewpoint Depression Visibility Wind Speed Wind Dir Waves Ship Positions

Midnight Wolf

Last reported at 2015-Jun-30 05:09 UTC. Time now 2015-Jun-30 08:16 UTC.
Position N 18°25' W 064°36'.

Length 51 m; draft 4 m.

Type: Cargo ship. MMSI: 351880000.

Date/timePositionNaut miles runAvg speedWind from/ knotsBaromVisibWave heightAir tempDewpointWater temp
2015-Jun-30 05:09N 18°25' W 064°36'6 9.4
2015-Jun-30 04:32N 18°20' W 064°40'8 7.9
2015-Jun-30 03:33N 18°17' W 064°47'6 1.0
2015-Jun-29 21:33N 18°17' W 064°53'13 9.4
2015-Jun-29 20:08N 18°20' W 064°39'4 7.5
2015-Jun-29 19:33N 18°22' W 064°35'1 0.9
2015-Jun-29 18:30N 18°23' W 064°36'2 0.4
2015-Jun-29 14:33N 18°23' W 064°37'9 7.9
2015-Jun-29 13:27N 18°17' W 064°44'7 7.5
2015-Jun-29 12:33N 18°17' W 064°51'8 0.2
2015-Jun-27 10:33N 18°25' W 064°52'1010.1
2015-Jun-27 09:33N 18°23' W 064°42'6 4.7
2015-Jun-27 08:22N 18°25' W 064°36'8 9.5
2015-Jun-27 07:33N 18°18' W 064°41'8 8.1
2015-Jun-27 06:32N 18°17' W 064°49'10 0.4
2015-Jun-26 02:33N 18°26' W 064°54'1010.0
2015-Jun-26 01:32N 18°23' W 064°43'7 1.1
2015-Jun-25 19:18N 18°25' W 064°36'3 4.4
2015-Jun-25 18:33N 18°22' W 064°35'14 6.3
2015-Jun-25 16:24N 18°17' W 064°49'4 0.1
2015-Jun-24 01:04N 18°16' W 064°44'6 9.7
2015-Jun-24 00:28N 18°20' W 064°39'6 4.4
2015-Jun-23 23:09N 18°25' W 064°36'6 9.5
2015-Jun-23 22:32N 18°20' W 064°39'10 8.4
2015-Jun-23 21:21N 18°17' W 064°50'4 0.1
2015-Jun-22 18:04N 18°17' W 064°53'8 9.8
2015-Jun-22 17:18N 18°17' W 064°45'8 9.2
2015-Jun-22 16:27N 18°21' W 064°39'4 0.4
2015-Jun-22 06:08N 18°25' W 064°36'6 9.2
2015-Jun-22 05:30N 18°20' W 064°40'8 8.0
2015-Jun-22 04:31N 18°17' W 064°47'6 0.3
2015-Jun-21 11:11N 18°17' W 064°53'7 9.5
2015-Jun-21 10:26N 18°17' W 064°46'8 8.8
2015-Jun-21 09:31N 18°21' W 064°39'4 0.2
2015-Jun-20 15:15N 18°25' W 064°36'3 4.6
2015-Jun-20 14:33N 18°22' W 064°35'3 0.4
2015-Jun-20 06:33N 18°24' W 064°36'9 8.8
2015-Jun-20 05:33N 18°23' W 064°46'  

Dump ship's entire track history